Time;durP1;ratioP1;P1;durP2;ratioP2;P2;SDS_P1;SDS_P2;PMS_P1;PMS_P2;Temp;Humidity;BMP_temperature;BMP_pressure;BME280_temperature;BME280_humidity;BME280_pressure;Samples;Min_cycle;Max_cycle;Signal;HPM_P1;HPM_P2
2022/02/03 00:02:08;;;;;;;6.10;2.43;;;;;;;3.13;64.56;100361.81;4911367;28;101642;-82
2022/02/03 00:11:18;;;;;;;8.47;3.37;;;;;;;3.26;64.48;100404.13;4926178;28;97370;-83
2022/02/03 00:31:35;;;;;;;9.93;3.40;;;;;;;2.96;64.44;100403.34;4932748;28;97156;-83
2022/02/03 00:50:08;;;;;;;10.03;3.97;;;;;;;3.08;64.46;100473.34;4943001;28;99629;-82
2022/02/03 00:52:36;;;;;;;11.30;4.37;;;;;;;3.10;64.53;100483.72;4948818;28;96809;-83
2022/02/03 00:55:02;;;;;;;9.23;4.17;;;;;;;3.02;64.69;100467.31;4929923;28;99199;-83
2022/02/03 00:57:43;;;;;;;12.17;4.20;;;;;;;3.03;64.63;100472.50;4929989;28;101243;-83
2022/02/03 01:00:12;;;;;;;9.63;3.97;;;;;;;3.04;64.79;100474.22;4933738;28;102000;-83
2022/02/03 01:02:43;;;;;;;11.30;4.30;;;;;;;2.86;64.48;100437.94;4933983;28;97008;-82
2022/02/03 01:05:09;;;;;;;10.48;4.10;;;;;;;3.25;64.35;100493.22;4927150;28;96897;-83
2022/02/03 01:07:37;;;;;;;13.13;4.70;;;;;;;3.12;64.56;100479.41;4945488;28;97393;-83
2022/02/03 01:10:14;;;;;;;9.83;3.83;;;;;;;3.27;64.47;100494.94;4949404;28;101575;-83
2022/02/03 01:15:49;;;;;;;12.40;4.18;;;;;;;3.09;64.76;100462.13;4935801;28;96891;-83
2022/02/03 01:37:20;;;;;;;;;;;;;;;3.25;65.08;100519.16;4940347;28;97194;-83
2022/02/03 01:45:37;;;;;;;9.07;3.30;;;;;;;3.17;65.51;100534.72;4940408;28;97269;-83
2022/02/03 01:53:43;;;;;;;11.77;4.20;;;;;;;3.26;65.61;100533.84;4949344;28;99012;-83
2022/02/03 01:56:12;;;;;;;11.87;3.27;;;;;;;3.29;65.79;100536.47;4934406;28;96750;-82
2022/02/03 01:58:48;;;;;;;9.47;3.03;;;;;;;3.30;66.05;100536.47;4922735;28;97264;-83
2022/02/03 02:01:22;;;;;;;11.07;3.03;;;;;;;3.20;66.03;100519.19;4948210;28;101974;-83
2022/02/03 02:04:10;;;;;;;10.17;3.53;;;;;;;3.34;65.97;100534.72;4947444;28;101217;-82
2022/02/03 02:07:13;;;;;;;8.07;3.00;;;;;;;3.30;66.45;100543.38;4953699;28;96987;-83
2022/02/03 02:13:09;;;;;;;;;;;;;;;3.19;66.67;100548.56;4989789;28;98011;-83
2022/02/03 02:16:01;;;;;;;11.57;3.83;;;;;;;3.13;66.25;100525.22;4957709;28;100759;-83
2022/02/03 02:38:40;;;;;;;16.63;4.70;;;;;;;2.92;67.27;100546.84;4955949;28;101502;-82
2022/02/03 02:44:07;;;;;;;13.70;3.20;;;;;;;2.82;67.84;100561.53;4971350;28;97295;-83
2022/02/03 02:46:40;;;;;;;10.67;3.73;;;;;;;3.01;67.85;100588.34;4956613;28;102285;-82
2022/02/03 02:49:10;;;;;;;11.97;3.23;;;;;;;3.06;67.78;100602.19;4971978;28;97950;-83
2022/02/03 02:51:46;;;;;;;12.40;3.60;;;;;;;3.02;68.11;100590.06;4971006;28;97598;-83
2022/02/03 02:59:58;;;;;;;10.87;3.33;;;;;;;3.01;68.00;100593.53;4951875;28;101383;-83
2022/02/03 03:35:10;;;;;;;17.43;3.57;;;;;;;3.00;69.07;100591.81;4954261;28;97461;-83
2022/02/03 03:37:46;;;;;;;12.48;3.35;;;;;;;2.97;69.18;100599.59;4973566;28;96718;-82
2022/02/03 03:40:13;;;;;;;18.37;4.07;;;;;;;3.01;69.23;100605.63;4937608;28;101088;-82
2022/02/03 03:42:43;;;;;;;8.90;3.23;;;;;;;3.04;69.24;100613.41;4970392;28;97607;-82
2022/02/03 03:45:10;;;;;;;12.43;3.80;;;;;;;3.28;68.88;100634.19;4955591;28;96949;-82
2022/02/03 03:47:38;;;;;;;12.63;3.63;;;;;;;3.10;69.38;100605.66;4969487;28;96832;-82
2022/02/03 03:50:15;;;;;;;11.50;4.43;;;;;;;3.12;69.09;100609.13;5002861;28;98105;-83
2022/02/03 03:52:55;;;;;;;8.80;3.47;;;;;;;3.18;69.19;100619.50;4983600;28;97834;-83
2022/02/03 03:58:12;;;;;;;12.67;4.37;;;;;;;3.28;68.82;100641.97;4954640;28;96918;-84
2022/02/03 04:53:29;;;;;;;13.90;4.50;;;;;;;3.26;68.94;100622.06;4976971;28;97077;-84
2022/02/03 05:01:21;;;;;;;12.13;4.20;;;;;;;3.23;68.26;100635.94;4959550;28;101440;-84
2022/02/03 05:03:38;;;;;;;12.20;4.80;;;;;;;3.17;68.71;100647.19;4974766;28;97930;-84
2022/02/03 05:06:30;;;;;;;13.43;4.82;;;;;;;3.14;68.85;100648.88;4988139;28;97216;-84
2022/02/03 05:09:14;;;;;;;;;;;;;;;3.08;69.12;100643.69;4978801;28;101308;-84
2022/02/03 05:17:43;;;;;;;13.60;4.30;;;;;;;3.04;68.70;100613.41;5011557;28;96607;-84
2022/02/03 05:20:39;;;;;;;14.07;4.22;;;;;;;3.02;68.80;100615.13;5010364;28;97779;-84
2022/02/03 05:51:15;;;;;;;11.87;4.87;;;;;;;3.26;68.42;100669.66;4975414;28;96698;-83
2022/02/03 06:04:44;;;;;;;17.47;5.53;;;;;;;3.23;68.70;100658.41;4967009;28;100390;-85
2022/02/03 06:15:04;;;;;;;8.77;3.57;;;;;;;3.26;68.48;100667.06;4957912;28;101269;-82
2022/02/03 06:17:48;;;;;;;10.57;3.27;;;;;;;3.21;68.83;100665.34;4961896;28;100393;-88
2022/02/03 06:23:05;;;;;;;15.50;3.90;;;;;;;3.23;68.53;100669.66;4976223;28;96909;-83
2022/02/03 06:28:15;;;;;;;14.70;3.83;;;;;;;3.16;69.08;100679.16;4964562;28;101799;-83
2022/02/03 06:30:41;;;;;;;15.53;3.37;;;;;;;3.22;68.31;100673.09;4954361;28;96922;-84
2022/02/03 06:33:08;;;;;;;10.13;3.20;;;;;;;3.22;68.50;100670.50;4952572;28;96971;-83
2022/02/03 06:35:34;;;;;;;13.57;3.77;;;;;;;3.25;68.74;100683.50;4967113;28;100488;-82
2022/02/03 06:37:59;;;;;;;14.87;3.50;;;;;;;3.28;68.44;100686.09;4952932;28;101514;-85
2022/02/03 06:40:25;;;;;;;16.80;4.30;;;;;;;3.13;68.11;100667.91;4952682;28;97119;-92
2022/02/03 06:42:55;;;;;;;14.77;4.53;;;;;;;3.23;68.45;100687.84;4978638;28;97387;-82
2022/02/03 06:48:18;;;;;;;16.27;5.10;;;;;;;3.27;68.48;100691.28;4962560;28;100388;-91
2022/02/03 06:50:50;;;;;;;19.33;5.90;;;;;;;3.23;68.74;100682.66;4958223;28;97034;-91
2022/02/03 06:53:20;;;;;;;15.27;5.43;;;;;;;3.23;68.77;100682.66;4983081;28;96863;-90
2022/02/03 06:56:01;;;;;;;17.70;5.40;;;;;;;3.29;68.30;100684.38;4970177;28;102267;-91
2022/02/03 07:01:04;;;;;;;21.80;5.93;;;;;;;3.35;68.44;100693.03;4981985;28;97349;-93
2022/02/03 07:03:33;;;;;;;15.98;5.25;;;;;;;3.25;68.30;100675.69;4973996;28;96745;-91
2022/02/03 07:05:59;;;;;;;17.70;5.80;;;;;;;3.37;68.29;100682.63;4966914;28;101811;-91
2022/02/03 07:08:25;;;;;;;21.43;7.10;;;;;;;3.44;67.96;100673.16;4954104;28;99814;-90
2022/02/03 07:10:54;;;;;;;23.33;7.13;;;;;;;3.34;67.95;100669.66;4967009;28;96793;-91
2022/02/03 07:13:19;;;;;;;27.77;8.20;;;;;;;3.43;68.08;100679.19;4971315;28;96941;-89
2022/02/03 07:15:45;;;;;;;21.53;8.57;;;;;;;3.33;68.21;100673.13;4966768;28;98307;-94
2022/02/03 07:18:11;;;;;;;27.43;8.70;;;;;;;3.39;68.24;100681.78;4960826;28;97813;-91
2022/02/03 07:20:36;;;;;;;29.47;10.27;;;;;;;3.36;68.08;100670.53;4946267;28;96913;-91
2022/02/03 07:23:03;;;;;;;26.13;9.53;;;;;;;3.54;67.46;100688.72;4943898;28;96936;-91
2022/02/03 07:25:30;;;;;;;27.33;8.63;;;;;;;3.60;67.44;100678.31;4939527;28;99025;-90
2022/02/03 07:27:57;;;;;;;26.47;8.97;;;;;;;3.67;67.20;100680.94;4964024;28;101578;-91
2022/02/03 07:30:22;;;;;;;23.83;7.37;;;;;;;3.61;67.36;100661.91;4992596;28;96729;-87
2022/02/03 07:32:54;;;;;;;24.33;7.67;;;;;;;3.64;67.27;100676.63;5002950;28;96341;-88
2022/02/03 07:35:20;;;;;;;23.08;6.60;;;;;;;3.61;67.10;100669.69;4954966;28;100765;-91
2022/02/03 07:37:47;;;;;;;24.23;7.63;;;;;;;3.67;66.99;100671.44;4964543;28;100856;-92
2022/02/03 07:40:14;;;;;;;19.77;7.10;;;;;;;3.70;67.23;100686.13;4966203;28;96959;-92
2022/02/03 07:42:41;;;;;;;25.60;7.57;;;;;;;3.63;66.85;100675.72;4949045;28;96837;-93
2022/02/03 07:45:07;;;;;;;16.23;7.40;;;;;;;3.71;67.26;100673.13;4971895;28;98373;-92
2022/02/03 07:47:33;;;;;;;18.17;6.80;;;;;;;3.83;66.58;100664.47;4964087;28;100223;-92
2022/02/03 07:49:59;;;;;;;24.50;6.93;;;;;;;3.88;66.43;100661.88;4963059;28;97687;-93
2022/02/03 07:52:25;;;;;;;16.37;6.10;;;;;;;3.79;66.07;100635.06;4968434;28;97139;-93
2022/02/03 07:54:50;;;;;;;26.03;7.30;;;;;;;3.89;65.43;100655.81;4967884;28;101702;-92
2022/02/03 07:57:16;;;;;;;19.87;6.63;;;;;;;3.95;65.63;100653.19;4963975;28;102031;-92
2022/02/03 07:59:41;;;;;;;21.73;6.47;;;;;;;3.89;65.34;100643.69;4946768;28;96676;-93
2022/02/03 08:02:07;;;;;;;15.87;5.30;;;;;;;3.80;65.25;100625.53;4989538;28;96901;-92
2022/02/03 08:04:37;;;;;;;28.67;8.90;;;;;;;3.84;64.95;100616.88;4986836;28;101687;-92
2022/02/03 08:07:03;;;;;;;43.97;15.00;;;;;;;3.97;65.11;100638.50;4969460;28;99898;-93
2022/02/03 08:09:56;;;;;;;27.93;8.50;;;;;;;3.97;65.43;100641.09;4981630;28;96924;-93
2022/02/03 08:12:28;;;;;;;29.90;10.83;;;;;;;4.02;64.83;100636.75;4963699;28;96709;-93
2022/02/03 08:14:54;;;;;;;41.37;10.87;;;;;;;4.13;64.70;100631.50;4957309;28;100437;-93
2022/02/03 08:17:23;;;;;;;36.37;10.77;;;;;;;3.98;64.84;100583.06;4969638;28;101612;-92
2022/02/03 08:22:47;;;;;;;47.40;17.48;;;;;;;4.26;64.27;100612.44;4966052;28;96814;-89
2022/02/03 08:32:47;;;;;;;106.97;30.90;;;;;;;4.50;63.74;100565.50;4975674;28;97040;-93
2022/02/03 08:35:36;;;;;;;62.70;19.10;;;;;;;4.97;62.57;100580.00;4969803;28;101223;-91
2022/02/03 08:38:12;;;;;;;64.50;17.93;;;;;;;5.45;61.26;100569.19;4958188;28;100192;-92
2022/02/03 08:43:12;;;;;;;51.60;15.50;;;;;;;6.23;59.26;100557.09;4983882;28;96621;-91
2022/02/03 08:45:38;;;;;;;45.83;16.43;;;;;;;6.32;59.24;100554.38;4975742;28;100500;-88
2022/02/03 08:48:04;;;;;;;20.40;7.37;;;;;;;7.03;57.47;100575.94;4992588;28;100379;-91
2022/02/03 08:50:32;;;;;;;21.17;7.30;;;;;;;7.15;56.87;100574.91;4972234;28;97203;-91
2022/02/03 08:53:04;;;;;;;28.60;9.53;;;;;;;7.47;57.01;100587.41;4968228;28;96717;-91
2022/02/03 08:58:24;;;;;;;21.53;8.63;;;;;;;8.61;53.08;100553.88;5005465;28;100507;-88
2022/02/03 09:41:46;;;;;;;15.75;5.30;;;;;;;12.09;42.06;100522.63;4979994;28;100500;-89
2022/02/03 10:02:18;;;;;;;19.30;7.63;;;;;;;12.74;40.95;100501.72;4974585;28;101528;-90
2022/02/03 10:04:52;;;;;;;13.27;6.18;;;;;;;12.85;40.87;100510.06;4954275;28;96826;-90
2022/02/03 10:07:21;;;;;;;21.05;9.10;;;;;;;12.66;40.57;100502.03;4945799;28;97181;-90
2022/02/03 10:09:52;;;;;;;25.27;9.07;;;;;;;12.59;40.49;100485.59;4970800;28;100635;-91
2022/02/03 10:12:30;;;;;;;16.73;5.57;;;;;;;12.29;40.85;100487.69;5137295;27;96638;-89
2022/02/03 10:14:56;;;;;;;27.90;10.63;;;;;;;12.21;40.85;100482.69;5098220;27;97046;-91
2022/02/03 10:17:33;;;;;;;19.30;6.60;;;;;;;12.55;40.71;100483.19;5058160;27;101878;-91
2022/02/03 10:20:10;;;;;;;21.50;8.63;;;;;;;12.64;41.12;100480.16;5083961;27;101270;-91
2022/02/03 10:22:49;;;;;;;13.82;7.45;;;;;;;12.67;40.33;100480.91;5092179;27;96768;-90
2022/02/03 10:25:22;;;;;;;19.90;7.22;;;;;;;13.06;39.57;100469.66;5084732;27;96988;-90
2022/02/03 10:28:03;;;;;;;15.02;5.55;;;;;;;12.93;40.02;100479.00;5061738;27;101360;-91
2022/02/03 10:30:39;;;;;;;17.13;6.70;;;;;;;12.72;39.13;100474.59;5096724;27;98341;-90
2022/02/03 10:33:05;;;;;;;15.52;7.05;;;;;;;12.79;40.02;100473.44;5076817;27;97085;-92
2022/02/03 10:35:57;;;;;;;19.80;7.53;;;;;;;12.78;40.08;100455.91;5061290;27;97327;-90
2022/02/03 10:49:20;;;;;;;20.80;11.35;;;;;;;11.91;41.73;100463.66;5057863;27;100376;-89
2022/02/03 10:55:09;;;;;;;12.90;5.40;;;;;;;11.60;42.92;100450.75;5077969;27;96767;-88
2022/02/03 11:03:37;;;;;;;16.73;6.53;;;;;;;11.02;45.71;100458.03;5075027;27;101448;-93
2022/02/03 11:11:33;;;;;;;;;;;;;;;10.44;47.53;100458.16;5093566;27;98464;-86
2022/02/03 11:13:59;;;;;;;17.33;6.10;;;;;;;10.10;48.44;100422.44;5076398;27;97864;-86
2022/02/03 11:16:25;;;;;;;16.00;6.22;;;;;;;10.17;48.33;100437.09;5092989;27;96692;-87
2022/02/03 11:18:52;;;;;;;19.52;5.82;;;;;;;10.05;48.55;100428.75;5079716;27;96651;-86
2022/02/03 11:21:18;;;;;;;13.35;5.88;;;;;;;9.84;48.92;100440.72;5076365;27;98030;-86
2022/02/03 11:23:53;;;;;;;17.67;6.65;;;;;;;9.44;49.83;100424.34;5063194;27;100703;-86
2022/02/03 11:26:31;;;;;;;16.70;6.50;;;;;;;9.49;49.63;100439.97;5044878;27;96801;-86
2022/02/03 12:17:53;;;;;;;10.40;3.75;;;;;;;9.18;48.55;100382.31;4993743;28;101518;-87
2022/02/03 12:21:03;;;;;;;11.32;3.65;;;;;;;9.09;48.68;100345.91;4995268;28;96816;-87
2022/02/03 12:23:46;;;;;;;12.85;3.88;;;;;;;9.16;49.03;100360.53;5008533;28;97860;-86
2022/02/03 12:26:24;;;;;;;11.23;3.65;;;;;;;9.18;48.72;100348.25;5010672;28;97459;-86
2022/02/03 12:28:55;;;;;;;10.50;3.28;;;;;;;9.26;47.34;100368.09;4992858;28;98115;-86
2022/02/03 12:31:53;;;;;;;9.45;3.13;;;;;;;9.23;47.67;100355.09;4986943;28;97473;-86
2022/02/03 12:37:17;;;;;;;12.73;3.22;;;;;;;9.23;45.84;100352.47;4987992;28;100194;-87
2022/02/03 12:40:03;;;;;;;10.07;3.45;;;;;;;9.12;46.34;100351.03;4996568;28;99752;-86
2022/02/03 12:45:16;;;;;;;16.05;3.90;;;;;;;8.94;46.79;100300.91;5014903;28;97487;-86
2022/02/03 12:47:46;;;;;;;9.82;3.40;;;;;;;9.12;46.53;100338.81;5031018;27;101347;-87
2022/02/03 12:50:22;;;;;;;10.95;3.55;;;;;;;9.02;46.92;100326.88;5054695;27;101512;-89
2022/02/03 12:52:47;;;;;;;8.88;3.47;;;;;;;8.99;47.26;100326.97;5056913;27;96701;-89
2022/02/03 12:55:21;;;;;;;10.88;3.78;;;;;;;8.96;46.70;100303.47;5057429;27;96644;-89
2022/02/03 12:57:49;;;;;;;12.52;3.97;;;;;;;8.94;47.16;100292.19;5039523;27;101685;-89
2022/02/03 13:00:20;;;;;;;12.50;3.42;;;;;;;8.97;47.84;100308.66;5055608;27;97410;-89
2022/02/03 13:03:01;;;;;;;12.32;3.45;;;;;;;8.84;47.27;100302.91;5066457;27;96684;-89
2022/02/03 13:05:29;;;;;;;18.23;3.92;;;;;;;8.87;46.85;100295.88;5065009;27;97111;-89
2022/02/03 13:07:57;;;;;;;14.23;4.18;;;;;;;8.97;47.71;100321.75;5039007;27;101344;-89
2022/02/03 13:10:31;;;;;;;11.48;3.20;;;;;;;8.94;47.12;100318.38;5047982;27;101138;-89
2022/02/03 13:13:10;;;;;;;11.05;3.47;;;;;;;8.87;47.25;100319.41;5057543;27;96753;-89
2022/02/03 13:15:42;;;;;;;17.77;4.18;;;;;;;8.84;47.25;100295.06;5058000;27;96894;-90
2022/02/03 13:18:17;;;;;;;;;;;;;;;8.85;47.05;100314.25;5046574;27;101467;-90
2022/02/03 13:20:53;;;;;;;8.07;3.15;;;;;;;8.65;47.67;100287.75;5063729;27;98392;-89
2022/02/03 13:23:23;;;;;;;9.75;3.13;;;;;;;8.74;47.44;100298.81;5035246;27;97206;-89
2022/02/03 13:26:06;;;;;;;7.25;2.95;;;;;;;8.59;47.34;100275.69;5057625;27;96717;-89
2022/02/03 13:28:40;;;;;;;10.40;3.17;;;;;;;8.86;46.98;100292.38;5053614;27;98458;-90
2022/02/03 13:31:41;;;;;;;12.38;3.35;;;;;;;8.81;47.18;100312.59;5074626;27;98342;-89
2022/02/03 13:34:14;;;;;;;8.82;3.00;;;;;;;8.59;46.40;100273.91;5072959;27;97243;-88
2022/02/03 13:36:47;;;;;;;11.85;3.40;;;;;;;8.64;46.46;100284.28;5045640;27;97116;-89
2022/02/03 13:39:25;;;;;;;10.25;3.67;;;;;;;8.54;46.46;100277.56;5059512;27;101313;-89
2022/02/03 13:42:04;;;;;;;10.98;4.35;;;;;;;8.68;46.08;100283.28;5066946;27;101039;-86
2022/02/03 13:44:30;;;;;;;21.67;3.63;;;;;;;8.72;46.32;100289.28;5088601;27;96756;-88
2022/02/03 13:46:56;;;;;;;17.33;3.80;;;;;;;8.65;46.88;100269.44;5070904;27;96850;-88
2022/02/03 13:49:25;;;;;;;15.35;3.67;;;;;;;8.68;47.18;100278.06;5045722;27;101629;-88
2022/02/03 13:51:59;;;;;;;19.67;3.85;;;;;;;8.65;46.80;100267.66;5052522;27;101267;-88
2022/02/03 13:54:54;;;;;;;12.15;3.42;;;;;;;8.65;47.15;100261.59;5037061;27;96764;-88
2022/02/03 14:19:02;;;;;;;21.95;3.70;;;;;;;8.67;48.88;100275.47;5054630;27;96817;-84
2022/02/03 14:27:06;;;;;;;17.35;3.65;;;;;;;8.58;48.54;100261.75;5053992;27;96697;-84
2022/02/03 14:29:39;;;;;;;13.40;3.40;;;;;;;8.50;48.90;100255.84;5055179;27;96699;-84
2022/02/03 14:32:06;;;;;;;14.50;3.33;;;;;;;8.53;48.47;100249.69;5037025;27;101333;-84
2022/02/03 14:34:34;;;;;;;14.70;3.88;;;;;;;8.46;49.14;100250.72;5020740;27;101734;-84
2022/02/03 14:37:08;;;;;;;14.88;4.20;;;;;;;8.48;49.60;100260.25;5037423;27;96709;-84
2022/02/03 14:42:39;;;;;;;13.10;3.60;;;;;;;8.28;49.24;100208.44;4992546;28;100997;-84
2022/02/03 14:45:06;;;;;;;11.63;3.47;;;;;;;8.51;50.06;100249.72;5042560;27;101799;-84
2022/02/03 14:47:33;;;;;;;12.90;3.53;;;;;;;8.53;49.70;100242.69;5053124;27;96675;-84
2022/02/03 14:50:04;;;;;;;17.00;4.15;;;;;;;8.42;49.92;100236.03;5054144;27;96758;-84
2022/02/03 14:52:33;;;;;;;18.15;3.88;;;;;;;8.31;49.79;100226.66;5036616;27;102080;-84
2022/02/03 14:58:04;;;;;;;15.20;4.20;;;;;;;8.34;50.58;100238.81;5039976;27;96592;-83
2022/02/03 15:00:31;;;;;;;14.50;3.85;;;;;;;8.33;50.12;100234.47;5026622;27;96899;-84
2022/02/03 15:02:58;;;;;;;11.93;3.65;;;;;;;8.35;50.62;100236.16;5023882;27;101697;-84
2022/02/03 15:05:33;;;;;;;11.10;3.78;;;;;;;8.24;50.86;100225.13;5057295;27;97959;-84
2022/02/03 15:08:02;;;;;;;17.50;4.40;;;;;;;8.20;50.95;100217.38;5041367;27;96721;-84
2022/02/03 15:13:09;;;;;;;10.70;3.58;;;;;;;8.21;50.76;100206.03;5060261;27;98539;-84
2022/02/03 15:15:34;;;;;;;12.82;3.50;;;;;;;8.11;51.39;100184.47;5027779;27;101206;-84
2022/02/03 15:18:00;;;;;;;11.90;3.42;;;;;;;8.16;51.16;100211.38;5060330;27;96892;-84
2022/02/03 15:20:26;;;;;;;12.63;3.83;;;;;;;8.08;51.39;100181.94;5060427;27;96795;-83
2022/02/03 15:22:52;;;;;;;10.40;3.65;;;;;;;8.18;51.47;100198.28;5025915;27;101125;-84
2022/02/03 15:25:18;;;;;;;12.43;3.92;;;;;;;8.05;51.60;100190.72;5026408;27;101193;-84
2022/02/03 15:27:44;;;;;;;13.03;3.87;;;;;;;8.16;51.83;100206.16;5043016;27;96566;-84
2022/02/03 15:30:11;;;;;;;16.42;4.72;;;;;;;8.01;52.81;100209.16;5043988;27;96773;-84
2022/02/03 15:32:42;;;;;;;13.02;4.28;;;;;;;7.90;52.40;100197.22;5042913;27;97627;-85
2022/02/03 15:35:13;;;;;;;13.73;4.23;;;;;;;7.94;52.72;100198.88;5060107;27;101813;-84
2022/02/03 15:37:39;;;;;;;14.07;4.85;;;;;;;7.91;53.25;100198.06;5027068;27;96735;-85
2022/02/03 15:40:10;;;;;;;21.67;4.67;;;;;;;7.89;53.23;100199.88;5043770;27;96623;-84
2022/02/03 15:42:41;;;;;;;15.73;4.97;;;;;;;7.89;53.57;100199.88;5043831;27;98017;-85
2022/02/03 15:45:07;;;;;;;14.75;5.72;;;;;;;7.90;53.80;100191.13;5026614;27;101201;-84
2022/02/03 15:47:42;;;;;;;17.27;5.07;;;;;;;7.84;54.07;100199.97;5060475;27;97268;-85
2022/02/03 16:17:08;;;;;;;16.83;5.78;;;;;;;7.31;59.60;100186.44;5042289;27;101516;-83
2022/02/03 16:19:48;;;;;;;14.88;6.00;;;;;;;7.42;59.78;100191.44;5043457;27;96654;-83
2022/02/03 16:25:03;;;;;;;19.77;7.85;;;;;;;7.40;60.32;100180.16;5043977;27;101381;-84
2022/02/03 16:41:31;;;;;;;21.60;11.02;;;;;;;7.13;62.51;100173.81;5067321;27;97182;-93
2022/02/03 16:54:49;;;;;;;18.80;7.15;;;;;;;7.12;62.86;100159.88;5075931;27;96602;-90
2022/02/03 16:57:19;;;;;;;18.30;8.38;;;;;;;7.14;63.80;100173.75;5068741;27;101119;-91
2022/02/03 16:59:54;;;;;;;16.37;6.30;;;;;;;7.19;63.26;100164.06;5083333;27;97265;-90
2022/02/03 17:02:20;;;;;;;25.45;9.50;;;;;;;7.16;62.83;100147.63;5080252;27;96640;-90
2022/02/03 17:04:46;;;;;;;25.20;9.43;;;;;;;7.12;63.31;100165.09;5056139;27;96809;-92
2022/02/03 17:07:11;;;;;;;20.77;8.40;;;;;;;7.12;63.13;100161.63;5069663;27;101780;-91
2022/02/03 17:09:39;;;;;;;17.42;5.80;;;;;;;7.06;63.27;100146.09;5064353;27;98199;-89
2022/02/03 17:12:07;;;;;;;13.77;6.20;;;;;;;6.88;63.25;100116.06;5053360;27;96809;-90
2022/02/03 17:14:34;;;;;;;13.73;5.50;;;;;;;7.07;63.46;100153.03;5056691;27;97012;-91
2022/02/03 17:16:59;;;;;;;15.60;6.33;;;;;;;7.05;63.83;100144.41;5043649;27;101928;-91
2022/02/03 17:19:25;;;;;;;18.70;7.53;;;;;;;6.99;63.56;100142.78;5063190;27;101192;-90
2022/02/03 17:21:50;;;;;;;19.03;9.00;;;;;;;7.05;63.49;100153.09;5042060;27;96746;-90
2022/02/03 17:24:16;;;;;;;20.48;7.55;;;;;;;6.69;63.57;100082.56;5027486;27;96925;-89
2022/02/03 17:26:59;;;;;;;22.10;8.97;;;;;;;6.93;63.94;100116.81;5030466;27;99516;-90
2022/02/03 17:29:38;;;;;;;22.90;9.70;;;;;;;6.80;64.04;100085.75;5029985;27;101028;-90
2022/02/03 17:45:08;;;;;;;17.37;7.43;;;;;;;6.64;64.35;100094.84;5028337;27;97265;-90
2022/02/03 18:10:25;;;;;;;20.88;8.90;;;;;;;6.55;67.12;100110.69;5039500;27;101731;-86
2022/02/03 18:19:29;;;;;;;17.53;8.70;;;;;;;6.41;67.67;100105.75;5078485;27;96933;-88
2022/02/03 18:46:29;;;;;;;32.83;15.07;;;;;;;6.42;69.11;100080.53;5071849;27;99645;-95
2022/02/03 18:49:48;;;;;;;30.00;16.57;;;;;;;6.41;68.82;100069.25;5076656;27;96662;-94
2022/02/03 18:52:01;;;;;;;31.07;15.93;;;;;;;6.46;68.78;100082.19;5068267;27;96996;-94
2022/02/03 19:03:00;;;;;;;28.48;12.23;;;;;;;6.37;69.44;100071.94;5066048;27;97095;-94
2022/02/03 19:11:17;;;;;;;30.50;14.93;;;;;;;6.38;69.63;100074.53;5065424;27;96915;-94
2022/02/03 19:16:24;;;;;;;29.30;14.27;;;;;;;6.34;69.29;100073.75;5061832;27;99034;-94
2022/02/03 19:56:32;;;;;;;24.70;11.90;;;;;;;6.48;69.26;100078.63;5037507;28;100389;-94
2022/02/03 20:05:24;;;;;;;28.40;13.57;;;;;;;6.33;70.67;100045.94;5063482;27;96720;-94
2022/02/03 20:10:25;;;;;;;25.40;11.83;;;;;;;5.95;70.44;99985.94;5043366;27;99080;-94
2022/02/03 20:12:52;;;;;;;30.40;11.20;;;;;;;6.36;70.67;100065.88;5053942;27;101423;-93
2022/02/03 20:15:21;;;;;;;24.50;10.33;;;;;;;5.82;70.88;99975.72;5038891;27;97163;-94
2022/02/03 20:17:47;;;;;;;25.17;9.70;;;;;;;5.86;70.85;99987.78;5044281;27;96862;-94
2022/02/03 20:20:15;;;;;;;25.97;10.80;;;;;;;5.98;71.03;99991.94;5059749;27;101098;-94
2022/02/03 20:22:41;;;;;;;18.00;10.17;;;;;;;6.06;70.88;100015.25;5044160;27;101430;-94
2022/02/03 20:25:10;;;;;;;24.27;11.27;;;;;;;6.13;71.17;100019.41;5065297;27;96825;-93
2022/02/03 20:27:41;;;;;;;27.37;10.60;;;;;;;5.80;71.26;99976.66;5063320;27;97409;-94
2022/02/03 20:30:10;;;;;;;20.83;9.37;;;;;;;6.20;70.70;100007.13;5061658;27;101368;-94
2022/02/03 20:32:38;;;;;;;24.83;10.57;;;;;;;6.28;70.68;100018.25;5047751;27;99806;-94
2022/02/03 20:35:05;;;;;;;21.20;9.53;;;;;;;5.95;70.67;99959.88;5064851;27;96769;-94
2022/02/03 20:37:31;;;;;;;18.17;9.43;;;;;;;5.92;71.17;99978.16;5065772;27;96836;-93
2022/02/03 20:39:56;;;;;;;24.67;10.07;;;;;;;6.13;70.63;99994.22;5047890;27;101318;-96
2022/02/03 20:42:22;;;;;;;19.97;9.60;;;;;;;5.84;71.03;99963.50;5047135;27;100759;-93
2022/02/03 20:44:49;;;;;;;21.70;8.97;;;;;;;5.80;71.12;99950.59;5047898;27;96781;-94
2022/02/03 20:47:18;;;;;;;20.50;9.83;;;;;;;5.83;71.38;99945.31;5048949;27;96701;-94
2022/02/03 20:49:44;;;;;;;21.20;9.00;;;;;;;6.01;71.08;99984.03;5047787;27;99740;-95
2022/02/03 20:52:18;;;;;;;24.47;9.40;;;;;;;5.83;71.51;99946.19;5048072;27;100019;-95
2022/02/03 20:54:47;;;;;;;23.08;9.95;;;;;;;5.97;72.13;100005.84;5047631;27;96496;-95
2022/02/03 20:57:14;;;;;;;22.63;10.03;;;;;;;5.62;71.94;99944.88;5064023;27;96827;-95
2022/02/03 20:59:57;;;;;;;23.23;10.93;;;;;;;5.64;71.99;99939.63;5047339;27;101401;-95
2022/02/03 21:02:50;;;;;;;29.07;11.60;;;;;;;5.89;72.03;99985.13;5066615;27;98242;-95
2022/02/03 21:05:12;;;;;;;22.30;9.77;;;;;;;5.77;71.77;99961.94;5065911;27;97056;-95
2022/02/03 21:07:40;;;;;;;29.73;12.30;;;;;;;5.87;72.34;99996.47;5048198;27;96644;-94
2022/02/03 21:10:10;;;;;;;30.13;13.07;;;;;;;5.63;71.74;99935.31;5047571;27;99978;-94
2022/02/03 21:12:41;;;;;;;20.60;10.43;;;;;;;5.66;71.87;99948.25;5064805;27;100092;-95
2022/02/03 21:15:09;;;;;;;19.07;9.33;;;;;;;5.61;71.88;99921.44;5082414;27;96575;-93
2022/02/03 21:17:35;;;;;;;21.10;8.60;;;;;;;5.57;71.93;99935.44;5061912;27;96779;-94
2022/02/03 21:20:12;;;;;;;18.77;8.40;;;;;;;5.76;71.78;99970.66;5059760;27;98577;-93
2022/02/03 21:22:38;;;;;;;18.63;8.77;;;;;;;5.80;72.11;99976.66;5048926;27;101377;-94
2022/02/03 21:25:22;;;;;;;19.97;8.10;;;;;;;5.56;72.37;99950.19;5047879;27;96616;-94
2022/02/03 21:27:49;;;;;;;22.00;8.47;;;;;;;5.38;72.03;99914.09;5066436;27;96695;-94
2022/02/03 21:30:18;;;;;;;17.20;8.30;;;;;;;5.48;72.38;99949.47;5065350;27;100320;-93
2022/02/03 21:32:44;;;;;;;15.73;7.60;;;;;;;5.55;72.81;99958.88;5047907;27;101156;-94
2022/02/03 21:35:10;;;;;;;18.20;8.17;;;;;;;5.55;72.82;99971.91;5048705;27;96573;-96
2022/02/03 21:37:38;;;;;;;18.57;8.27;;;;;;;5.53;72.37;99968.50;5048390;27;96771;-93
2022/02/03 21:40:06;;;;;;;20.67;8.50;;;;;;;5.30;72.71;99935.06;5047681;27;101663;-94
2022/02/03 21:42:32;;;;;;;20.80;9.13;;;;;;;5.15;72.75;99901.53;5048370;27;100771;-93
2022/02/03 21:44:57;;;;;;;19.33;8.47;;;;;;;5.10;72.81;99877.34;5048732;27;97059;-93
2022/02/03 21:47:23;;;;;;;21.87;8.80;;;;;;;5.12;72.84;99897.25;5065502;27;96766;-93
2022/02/03 21:49:49;;;;;;;24.33;9.47;;;;;;;5.39;72.45;99949.66;5065803;27;100107;-96
2022/02/03 21:52:20;;;;;;;18.43;7.70;;;;;;;5.38;72.98;99963.53;5065022;27;100888;-96
2022/02/03 21:54:47;;;;;;;20.93;8.23;;;;;;;4.99;72.41;99888.78;5066274;27;96855;-94
2022/02/03 21:57:15;;;;;;;15.43;7.87;;;;;;;5.63;72.75;99988.25;5048452;27;96958;-93
2022/02/03 21:59:41;;;;;;;14.40;6.53;;;;;;;5.11;72.79;99910.25;5066158;27;98174;-94
2022/02/03 22:02:14;;;;;;;19.20;7.77;;;;;;;5.28;72.49;99928.19;5047888;27;101531;-94
2022/02/03 22:04:40;;;;;;;20.67;7.47;;;;;;;4.98;72.58;99886.22;5068941;27;96637;-93
2022/02/03 22:07:05;;;;;;;17.30;7.70;;;;;;;5.05;72.81;99898.22;5052043;27;96897;-93
2022/02/03 22:09:40;;;;;;;15.47;6.47;;;;;;;5.00;72.49;99876.63;5049847;27;100182;-94
2022/02/03 22:12:09;;;;;;;21.40;9.53;;;;;;;5.16;72.37;99903.25;5064688;27;98748;-94
2022/02/03 22:14:35;;;;;;;16.97;7.10;;;;;;;5.70;72.54;99996.78;5065941;27;96597;-94
2022/02/03 22:17:03;;;;;;;17.07;7.07;;;;;;;5.07;72.27;99896.47;5048134;27;96722;-94
2022/02/03 22:19:32;;;;;;;17.47;7.20;;;;;;;5.43;72.40;99954.75;5048146;27;100151;-93
2022/02/03 22:22:09;;;;;;;16.17;7.53;;;;;;;4.94;72.73;99880.19;5048276;27;101043;-94